X  Stänga Metar väderdata för luftfart     LEAL Alicante-Elche Miguel Hernández Airport
Temperatur
22°C Temperatur
15°C Daggpunkt
65% Fuktighet



Vind
6 M/S
13 MPH
21 KM/T
11 KTS



130°
Nuvarande omständigheter

Delvis molnigt Delvis molnigt
Tryck 1009.82 (hPa) - 29.82 (inHg)
Synlighet 6 (mil) - 9.7 (km)
Flygplats
Flygplatskod LEAL

Plats: Alicante-Elche Miguel Hernández Airport
Distans: 60 (km)

Metar:
LEAL 181500Z 13011KT 090V160 9999 FEW016 SCT025 22/15 Q1010 NOSIG

Tid: 18-05-2024 17:00 CEST